sensor_id;sensor_type;location;lat;lon;timestamp;P1;durP1;ratioP1;P2;durP2;ratioP2
64674;SDS011;51090;51.512;11.332;2022-07-23T00:01:15;7.55;;;4.85;;
64674;SDS011;51090;51.512;11.332;2022-07-23T00:03:41;7.88;;;4.57;;
64674;SDS011;51090;51.512;11.332;2022-07-23T00:06:08;6.18;;;4.30;;
64674;SDS011;51090;51.512;11.332;2022-07-23T00:08:34;7.65;;;4.50;;
64674;SDS011;51090;51.512;11.332;2022-07-23T00:11:00;7.35;;;4.90;;
64674;SDS011;51090;51.512;11.332;2022-07-23T00:13:26;7.50;;;4.35;;
64674;SDS011;51090;51.512;11.332;2022-07-23T00:15:52;7.38;;;4.57;;
64674;SDS011;51090;51.512;11.332;2022-07-23T00:18:19;7.63;;;4.28;;
64674;SDS011;51090;51.512;11.332;2022-07-23T00:20:45;9.85;;;4.60;;
64674;SDS011;51090;51.512;11.332;2022-07-23T00:23:11;8.10;;;4.55;;
64674;SDS011;51090;51.512;11.332;2022-07-23T00:25:37;7.32;;;4.47;;
64674;SDS011;51090;51.512;11.332;2022-07-23T00:28:03;7.88;;;4.07;;
64674;SDS011;51090;51.512;11.332;2022-07-23T00:30:30;7.72;;;5.25;;
64674;SDS011;51090;51.512;11.332;2022-07-23T00:33:01;6.30;;;4.20;;
64674;SDS011;51090;51.512;11.332;2022-07-23T00:35:30;6.97;;;4.65;;
64674;SDS011;51090;51.512;11.332;2022-07-23T00:37:57;8.18;;;4.63;;
64674;SDS011;51090;51.512;11.332;2022-07-23T00:40:24;10.75;;;5.40;;
64674;SDS011;51090;51.512;11.332;2022-07-23T00:42:51;10.10;;;4.50;;
64674;SDS011;51090;51.512;11.332;2022-07-23T00:45:18;10.35;;;5.38;;
64674;SDS011;51090;51.512;11.332;2022-07-23T00:47:44;7.40;;;3.97;;
64674;SDS011;51090;51.512;11.332;2022-07-23T00:50:11;8.13;;;4.65;;
64674;SDS011;51090;51.512;11.332;2022-07-23T00:52:39;10.70;;;4.90;;
64674;SDS011;51090;51.512;11.332;2022-07-23T00:55:07;8.30;;;5.20;;
64674;SDS011;51090;51.512;11.332;2022-07-23T00:57:35;10.40;;;5.20;;
64674;SDS011;51090;51.512;11.332;2022-07-23T01:00:03;7.10;;;3.65;;
64674;SDS011;51090;51.512;11.332;2022-07-23T01:02:34;7.82;;;4.10;;
64674;SDS011;51090;51.512;11.332;2022-07-23T01:05:00;10.32;;;4.38;;
64674;SDS011;51090;51.512;11.332;2022-07-23T01:07:26;7.72;;;5.00;;
64674;SDS011;51090;51.512;11.332;2022-07-23T01:09:53;8.52;;;4.35;;
64674;SDS011;51090;51.512;11.332;2022-07-23T01:12:20;7.50;;;4.32;;
64674;SDS011;51090;51.512;11.332;2022-07-23T01:14:53;8.57;;;5.28;;
64674;SDS011;51090;51.512;11.332;2022-07-23T01:17:20;10.65;;;5.32;;
64674;SDS011;51090;51.512;11.332;2022-07-23T01:19:46;7.82;;;4.72;;
64674;SDS011;51090;51.512;11.332;2022-07-23T01:22:13;10.20;;;5.88;;
64674;SDS011;51090;51.512;11.332;2022-07-23T01:24:42;9.38;;;5.38;;
64674;SDS011;51090;51.512;11.332;2022-07-23T01:27:08;11.88;;;4.70;;
64674;SDS011;51090;51.512;11.332;2022-07-23T01:29:34;9.68;;;5.07;;
64674;SDS011;51090;51.512;11.332;2022-07-23T01:32:00;6.88;;;4.78;;
64674;SDS011;51090;51.512;11.332;2022-07-23T01:34:26;9.55;;;4.30;;
64674;SDS011;51090;51.512;11.332;2022-07-23T01:36:52;9.15;;;4.43;;
64674;SDS011;51090;51.512;11.332;2022-07-23T01:39:18;5.75;;;4.35;;
64674;SDS011;51090;51.512;11.332;2022-07-23T01:41:44;8.73;;;4.63;;
64674;SDS011;51090;51.512;11.332;2022-07-23T01:44:11;8.45;;;4.63;;
64674;SDS011;51090;51.512;11.332;2022-07-23T01:46:38;6.57;;;4.45;;
64674;SDS011;51090;51.512;11.332;2022-07-23T01:49:04;18.20;;;7.22;;
64674;SDS011;51090;51.512;11.332;2022-07-23T01:51:30;15.38;;;6.00;;
64674;SDS011;51090;51.512;11.332;2022-07-23T01:53:56;12.85;;;6.93;;
64674;SDS011;51090;51.512;11.332;2022-07-23T01:56:22;16.55;;;5.90;;
64674;SDS011;51090;51.512;11.332;2022-07-23T01:58:48;12.93;;;7.18;;
64674;SDS011;51090;51.512;11.332;2022-07-23T02:01:14;14.45;;;7.00;;
64674;SDS011;51090;51.512;11.332;2022-07-23T02:03:41;11.48;;;6.22;;
64674;SDS011;51090;51.512;11.332;2022-07-23T02:06:07;12.90;;;7.68;;
64674;SDS011;51090;51.512;11.332;2022-07-23T02:08:33;12.63;;;5.93;;
64674;SDS011;51090;51.512;11.332;2022-07-23T02:10:59;10.63;;;5.50;;
64674;SDS011;51090;51.512;11.332;2022-07-23T02:13:25;9.52;;;5.97;;
64674;SDS011;51090;51.512;11.332;2022-07-23T02:15:51;11.75;;;5.55;;
64674;SDS011;51090;51.512;11.332;2022-07-23T02:18:17;11.38;;;6.35;;
64674;SDS011;51090;51.512;11.332;2022-07-23T02:20:43;11.48;;;6.15;;
64674;SDS011;51090;51.512;11.332;2022-07-23T02:23:09;9.35;;;5.45;;
64674;SDS011;51090;51.512;11.332;2022-07-23T02:25:35;10.13;;;7.15;;
64674;SDS011;51090;51.512;11.332;2022-07-23T02:28:01;8.85;;;5.57;;
64674;SDS011;51090;51.512;11.332;2022-07-23T02:30:28;8.35;;;5.80;;
64674;SDS011;51090;51.512;11.332;2022-07-23T02:32:54;11.38;;;6.40;;
64674;SDS011;51090;51.512;11.332;2022-07-23T02:35:20;11.23;;;6.93;;
64674;SDS011;51090;51.512;11.332;2022-07-23T02:37:46;13.32;;;7.05;;
64674;SDS011;51090;51.512;11.332;2022-07-23T02:40:12;9.35;;;5.65;;
64674;SDS011;51090;51.512;11.332;2022-07-23T02:42:38;11.57;;;7.30;;
64674;SDS011;51090;51.512;11.332;2022-07-23T02:45:05;11.98;;;6.97;;
64674;SDS011;51090;51.512;11.332;2022-07-23T02:47:32;10.35;;;7.00;;
64674;SDS011;51090;51.512;11.332;2022-07-23T02:49:58;12.10;;;7.05;;
64674;SDS011;51090;51.512;11.332;2022-07-23T02:52:24;11.38;;;7.35;;
64674;SDS011;51090;51.512;11.332;2022-07-23T02:54:50;10.45;;;6.90;;
64674;SDS011;51090;51.512;11.332;2022-07-23T02:57:16;15.52;;;7.55;;
64674;SDS011;51090;51.512;11.332;2022-07-23T02:59:42;14.70;;;8.13;;
64674;SDS011;51090;51.512;11.332;2022-07-23T03:02:08;13.20;;;7.45;;
64674;SDS011;51090;51.512;11.332;2022-07-23T03:04:34;11.13;;;7.20;;
64674;SDS011;51090;51.512;11.332;2022-07-23T03:07:00;14.65;;;7.60;;
64674;SDS011;51090;51.512;11.332;2022-07-23T03:09:26;10.82;;;6.80;;
64674;SDS011;51090;51.512;11.332;2022-07-23T03:11:52;10.52;;;6.90;;
64674;SDS011;51090;51.512;11.332;2022-07-23T03:14:18;11.65;;;6.72;;
64674;SDS011;51090;51.512;11.332;2022-07-23T03:16:44;11.68;;;6.75;;
64674;SDS011;51090;51.512;11.332;2022-07-23T03:19:10;11.20;;;6.65;;
64674;SDS011;51090;51.512;11.332;2022-07-23T03:21:36;10.13;;;6.72;;
64674;SDS011;51090;51.512;11.332;2022-07-23T03:24:05;12.57;;;6.43;;
64674;SDS011;51090;51.512;11.332;2022-07-23T03:26:35;13.25;;;7.20;;
64674;SDS011;51090;51.512;11.332;2022-07-23T03:29:01;10.57;;;6.68;;
64674;SDS011;51090;51.512;11.332;2022-07-23T03:31:28;15.73;;;8.23;;
64674;SDS011;51090;51.512;11.332;2022-07-23T03:33:56;15.35;;;9.82;;
64674;SDS011;51090;51.512;11.332;2022-07-23T03:36:23;8.27;;;5.53;;
64674;SDS011;51090;51.512;11.332;2022-07-23T03:38:49;11.63;;;7.15;;
64674;SDS011;51090;51.512;11.332;2022-07-23T03:41:15;13.32;;;8.50;;
64674;SDS011;51090;51.512;11.332;2022-07-23T03:43:42;13.32;;;8.45;;
64674;SDS011;51090;51.512;11.332;2022-07-23T03:46:08;10.10;;;5.72;;
64674;SDS011;51090;51.512;11.332;2022-07-23T03:48:34;13.68;;;7.53;;
64674;SDS011;51090;51.512;11.332;2022-07-23T03:51:01;13.20;;;8.43;;
64674;SDS011;51090;51.512;11.332;2022-07-23T03:53:27;8.40;;;4.85;;
64674;SDS011;51090;51.512;11.332;2022-07-23T03:55:53;8.10;;;4.93;;
64674;SDS011;51090;51.512;11.332;2022-07-23T03:58:19;10.48;;;6.63;;
64674;SDS011;51090;51.512;11.332;2022-07-23T04:00:45;12.60;;;9.27;;
64674;SDS011;51090;51.512;11.332;2022-07-23T04:03:12;13.02;;;8.68;;
64674;SDS011;51090;51.512;11.332;2022-07-23T04:05:38;13.23;;;7.60;;
64674;SDS011;51090;51.512;11.332;2022-07-23T04:08:04;12.15;;;7.85;;
64674;SDS011;51090;51.512;11.332;2022-07-23T04:10:30;14.73;;;8.98;;
64674;SDS011;51090;51.512;11.332;2022-07-23T04:12:56;14.82;;;9.63;;
64674;SDS011;51090;51.512;11.332;2022-07-23T04:15:22;11.43;;;7.82;;
64674;SDS011;51090;51.512;11.332;2022-07-23T04:17:48;13.10;;;8.43;;
64674;SDS011;51090;51.512;11.332;2022-07-23T04:20:14;14.20;;;8.73;;
64674;SDS011;51090;51.512;11.332;2022-07-23T04:22:41;15.32;;;9.00;;
64674;SDS011;51090;51.512;11.332;2022-07-23T04:25:07;13.48;;;8.75;;
64674;SDS011;51090;51.512;11.332;2022-07-23T04:27:33;13.45;;;8.20;;
64674;SDS011;51090;51.512;11.332;2022-07-23T04:29:59;12.55;;;8.40;;
64674;SDS011;51090;51.512;11.332;2022-07-23T04:32:25;12.65;;;8.07;;
64674;SDS011;51090;51.512;11.332;2022-07-23T04:34:51;15.75;;;9.65;;
64674;SDS011;51090;51.512;11.332;2022-07-23T04:37:17;16.63;;;8.60;;
64674;SDS011;51090;51.512;11.332;2022-07-23T04:39:43;12.27;;;8.70;;
64674;SDS011;51090;51.512;11.332;2022-07-23T04:42:09;12.85;;;8.60;;
64674;SDS011;51090;51.512;11.332;2022-07-23T04:44:35;13.93;;;8.50;;
64674;SDS011;51090;51.512;11.332;2022-07-23T04:47:01;13.32;;;8.93;;
64674;SDS011;51090;51.512;11.332;2022-07-23T04:49:27;14.85;;;8.70;;
64674;SDS011;51090;51.512;11.332;2022-07-23T04:51:53;11.73;;;8.65;;
64674;SDS011;51090;51.512;11.332;2022-07-23T04:54:19;16.70;;;9.55;;
64674;SDS011;51090;51.512;11.332;2022-07-23T04:56:45;11.38;;;8.40;;
64674;SDS011;51090;51.512;11.332;2022-07-23T04:59:11;14.63;;;9.05;;
64674;SDS011;51090;51.512;11.332;2022-07-23T05:01:37;14.43;;;9.60;;
64674;SDS011;51090;51.512;11.332;2022-07-23T05:04:03;13.18;;;8.80;;
64674;SDS011;51090;51.512;11.332;2022-07-23T05:06:29;13.07;;;8.15;;
64674;SDS011;51090;51.512;11.332;2022-07-23T05:08:56;13.70;;;9.30;;
64674;SDS011;51090;51.512;11.332;2022-07-23T05:11:22;14.27;;;9.07;;
64674;SDS011;51090;51.512;11.332;2022-07-23T05:13:48;10.77;;;7.40;;
64674;SDS011;51090;51.512;11.332;2022-07-23T05:16:14;12.45;;;8.35;;
64674;SDS011;51090;51.512;11.332;2022-07-23T05:18:40;13.23;;;8.30;;
64674;SDS011;51090;51.512;11.332;2022-07-23T05:21:06;12.60;;;8.38;;
64674;SDS011;51090;51.512;11.332;2022-07-23T05:23:32;10.85;;;5.78;;
64674;SDS011;51090;51.512;11.332;2022-07-23T05:25:58;8.38;;;5.53;;
64674;SDS011;51090;51.512;11.332;2022-07-23T05:28:24;9.07;;;5.93;;
64674;SDS011;51090;51.512;11.332;2022-07-23T05:30:50;10.00;;;6.57;;
64674;SDS011;51090;51.512;11.332;2022-07-23T05:33:19;8.50;;;6.03;;
64674;SDS011;51090;51.512;11.332;2022-07-23T05:35:46;7.97;;;5.78;;
64674;SDS011;51090;51.512;11.332;2022-07-23T05:38:12;9.32;;;6.10;;
64674;SDS011;51090;51.512;11.332;2022-07-23T05:40:38;7.63;;;4.50;;
64674;SDS011;51090;51.512;11.332;2022-07-23T05:43:04;5.72;;;3.88;;
64674;SDS011;51090;51.512;11.332;2022-07-23T05:45:30;6.03;;;4.25;;
64674;SDS011;51090;51.512;11.332;2022-07-23T05:47:56;6.32;;;3.40;;
64674;SDS011;51090;51.512;11.332;2022-07-23T05:50:22;6.55;;;3.83;;
64674;SDS011;51090;51.512;11.332;2022-07-23T05:52:48;5.32;;;3.70;;
64674;SDS011;51090;51.512;11.332;2022-07-23T05:55:14;6.13;;;3.80;;
64674;SDS011;51090;51.512;11.332;2022-07-23T05:57:40;4.10;;;2.83;;
64674;SDS011;51090;51.512;11.332;2022-07-23T06:00:07;6.30;;;4.10;;
64674;SDS011;51090;51.512;11.332;2022-07-23T06:02:34;5.57;;;3.42;;
64674;SDS011;51090;51.512;11.332;2022-07-23T06:05:00;6.82;;;4.45;;
64674;SDS011;51090;51.512;11.332;2022-07-23T06:07:26;5.43;;;3.90;;
64674;SDS011;51090;51.512;11.332;2022-07-23T06:09:53;7.70;;;5.10;;
64674;SDS011;51090;51.512;11.332;2022-07-23T06:12:19;6.38;;;4.38;;
64674;SDS011;51090;51.512;11.332;2022-07-23T06:14:45;7.70;;;4.43;;
64674;SDS011;51090;51.512;11.332;2022-07-23T06:17:13;6.90;;;5.10;;
64674;SDS011;51090;51.512;11.332;2022-07-23T06:19:39;8.52;;;5.82;;
64674;SDS011;51090;51.512;11.332;2022-07-23T06:22:05;6.13;;;4.22;;
64674;SDS011;51090;51.512;11.332;2022-07-23T06:24:31;8.85;;;5.93;;
64674;SDS011;51090;51.512;11.332;2022-07-23T06:26:57;9.85;;;6.43;;
64674;SDS011;51090;51.512;11.332;2022-07-23T06:29:23;7.32;;;4.93;;
64674;SDS011;51090;51.512;11.332;2022-07-23T06:31:49;7.22;;;4.97;;
64674;SDS011;51090;51.512;11.332;2022-07-23T06:34:15;9.00;;;6.15;;
64674;SDS011;51090;51.512;11.332;2022-07-23T06:36:41;10.13;;;7.18;;
64674;SDS011;51090;51.512;11.332;2022-07-23T06:39:07;10.85;;;7.00;;
64674;SDS011;51090;51.512;11.332;2022-07-23T06:41:33;12.13;;;8.55;;
64674;SDS011;51090;51.512;11.332;2022-07-23T06:43:59;14.90;;;8.32;;
64674;SDS011;51090;51.512;11.332;2022-07-23T06:46:25;14.52;;;9.30;;
64674;SDS011;51090;51.512;11.332;2022-07-23T06:48:51;15.43;;;8.82;;
64674;SDS011;51090;51.512;11.332;2022-07-23T06:51:17;8.10;;;5.75;;
64674;SDS011;51090;51.512;11.332;2022-07-23T06:53:43;15.05;;;8.63;;
64674;SDS011;51090;51.512;11.332;2022-07-23T06:56:10;15.50;;;10.23;;
64674;SDS011;51090;51.512;11.332;2022-07-23T06:58:36;13.48;;;9.75;;
64674;SDS011;51090;51.512;11.332;2022-07-23T07:01:02;9.95;;;6.55;;
64674;SDS011;51090;51.512;11.332;2022-07-23T07:03:28;12.45;;;7.35;;
64674;SDS011;51090;51.512;11.332;2022-07-23T07:05:54;13.00;;;7.20;;
64674;SDS011;51090;51.512;11.332;2022-07-23T07:08:22;20.75;;;13.48;;
64674;SDS011;51090;51.512;11.332;2022-07-23T07:10:48;13.93;;;9.57;;
64674;SDS011;51090;51.512;11.332;2022-07-23T07:13:14;17.00;;;11.68;;
64674;SDS011;51090;51.512;11.332;2022-07-23T07:15:41;15.23;;;9.88;;
64674;SDS011;51090;51.512;11.332;2022-07-23T07:18:07;11.07;;;8.07;;
64674;SDS011;51090;51.512;11.332;2022-07-23T07:20:33;13.35;;;8.90;;
64674;SDS011;51090;51.512;11.332;2022-07-23T07:22:59;12.32;;;8.50;;
64674;SDS011;51090;51.512;11.332;2022-07-23T07:25:25;10.50;;;6.70;;
64674;SDS011;51090;51.512;11.332;2022-07-23T07:27:51;13.18;;;8.80;;
64674;SDS011;51090;51.512;11.332;2022-07-23T07:30:17;12.57;;;8.63;;
64674;SDS011;51090;51.512;11.332;2022-07-23T07:32:43;14.00;;;8.50;;
64674;SDS011;51090;51.512;11.332;2022-07-23T07:35:10;14.13;;;8.75;;
64674;SDS011;51090;51.512;11.332;2022-07-23T07:37:36;12.88;;;8.90;;
64674;SDS011;51090;51.512;11.332;2022-07-23T07:40:02;13.98;;;7.85;;
64674;SDS011;51090;51.512;11.332;2022-07-23T07:42:28;12.70;;;8.35;;
64674;SDS011;51090;51.512;11.332;2022-07-23T07:44:55;13.68;;;8.38;;
64674;SDS011;51090;51.512;11.332;2022-07-23T07:47:21;14.32;;;10.05;;
64674;SDS011;51090;51.512;11.332;2022-07-23T07:49:47;16.42;;;9.27;;
64674;SDS011;51090;51.512;11.332;2022-07-23T07:52:13;24.20;;;10.35;;
64674;SDS011;51090;51.512;11.332;2022-07-23T07:54:39;15.68;;;8.43;;
64674;SDS011;51090;51.512;11.332;2022-07-23T07:57:05;18.40;;;11.05;;
64674;SDS011;51090;51.512;11.332;2022-07-23T07:59:31;18.75;;;11.30;;
64674;SDS011;51090;51.512;11.332;2022-07-23T08:01:58;16.50;;;11.02;;
64674;SDS011;51090;51.512;11.332;2022-07-23T08:04:24;15.50;;;10.30;;
64674;SDS011;51090;51.512;11.332;2022-07-23T08:06:50;19.33;;;11.30;;
64674;SDS011;51090;51.512;11.332;2022-07-23T08:09:16;17.27;;;11.82;;
64674;SDS011;51090;51.512;11.332;2022-07-23T08:11:42;21.38;;;12.65;;
64674;SDS011;51090;51.512;11.332;2022-07-23T08:14:08;17.35;;;11.75;;
64674;SDS011;51090;51.512;11.332;2022-07-23T08:16:36;19.30;;;11.35;;
64674;SDS011;51090;51.512;11.332;2022-07-23T08:19:02;18.05;;;9.77;;
64674;SDS011;51090;51.512;11.332;2022-07-23T08:21:28;15.85;;;11.38;;
64674;SDS011;51090;51.512;11.332;2022-07-23T08:23:54;12.82;;;9.35;;
64674;SDS011;51090;51.512;11.332;2022-07-23T08:26:20;15.32;;;10.65;;
64674;SDS011;51090;51.512;11.332;2022-07-23T08:28:46;16.20;;;9.77;;
64674;SDS011;51090;51.512;11.332;2022-07-23T08:31:12;14.52;;;10.02;;
64674;SDS011;51090;51.512;11.332;2022-07-23T08:33:40;16.65;;;10.82;;
64674;SDS011;51090;51.512;11.332;2022-07-23T08:36:06;20.27;;;14.32;;
64674;SDS011;51090;51.512;11.332;2022-07-23T08:38:32;20.75;;;13.68;;
64674;SDS011;51090;51.512;11.332;2022-07-23T08:40:59;16.90;;;10.95;;
64674;SDS011;51090;51.512;11.332;2022-07-23T08:43:25;17.02;;;11.93;;
64674;SDS011;51090;51.512;11.332;2022-07-23T08:45:56;18.38;;;11.05;;
64674;SDS011;51090;51.512;11.332;2022-07-23T08:48:24;17.15;;;12.25;;
64674;SDS011;51090;51.512;11.332;2022-07-23T08:50:54;15.68;;;11.98;;
64674;SDS011;51090;51.512;11.332;2022-07-23T08:53:22;18.15;;;11.80;;
64674;SDS011;51090;51.512;11.332;2022-07-23T08:55:51;16.67;;;11.35;;
64674;SDS011;51090;51.512;11.332;2022-07-23T08:58:20;14.93;;;10.77;;
64674;SDS011;51090;51.512;11.332;2022-07-23T09:00:47;15.05;;;10.38;;
64674;SDS011;51090;51.512;11.332;2022-07-23T09:03:21;17.80;;;11.95;;
64674;SDS011;51090;51.512;11.332;2022-07-23T09:05:49;18.90;;;11.43;;
64674;SDS011;51090;51.512;11.332;2022-07-23T09:08:17;14.75;;;10.90;;
64674;SDS011;51090;51.512;11.332;2022-07-23T09:13:22;18.17;;;10.15;;
64674;SDS011;51090;51.512;11.332;2022-07-23T09:15:49;15.15;;;10.35;;
64674;SDS011;51090;51.512;11.332;2022-07-23T09:18:17;15.75;;;9.98;;
64674;SDS011;51090;51.512;11.332;2022-07-23T09:20:46;15.23;;;10.73;;
64674;SDS011;51090;51.512;11.332;2022-07-23T09:23:12;12.98;;;9.35;;
64674;SDS011;51090;51.512;11.332;2022-07-23T09:25:38;14.00;;;9.95;;
64674;SDS011;51090;51.512;11.332;2022-07-23T09:28:04;13.45;;;9.85;;
64674;SDS011;51090;51.512;11.332;2022-07-23T09:30:32;14.05;;;9.90;;
64674;SDS011;51090;51.512;11.332;2022-07-23T09:33:04;13.73;;;9.70;;
64674;SDS011;51090;51.512;11.332;2022-07-23T09:36:03;14.95;;;10.35;;
64674;SDS011;51090;51.512;11.332;2022-07-23T09:38:29;16.42;;;10.63;;
64674;SDS011;51090;51.512;11.332;2022-07-23T09:41:05;12.90;;;9.88;;
64674;SDS011;51090;51.512;11.332;2022-07-23T09:43:35;13.70;;;9.52;;
64674;SDS011;51090;51.512;11.332;2022-07-23T09:46:20;14.15;;;9.60;;
64674;SDS011;51090;51.512;11.332;2022-07-23T09:48:52;14.60;;;10.18;;
64674;SDS011;51090;51.512;11.332;2022-07-23T09:51:19;17.52;;;10.23;;
64674;SDS011;51090;51.512;11.332;2022-07-23T09:53:50;16.98;;;12.07;;
64674;SDS011;51090;51.512;11.332;2022-07-23T09:56:17;15.07;;;10.50;;
64674;SDS011;51090;51.512;11.332;2022-07-23T09:58:45;14.55;;;10.30;;
64674;SDS011;51090;51.512;11.332;2022-07-23T10:01:15;13.55;;;9.85;;
64674;SDS011;51090;51.512;11.332;2022-07-23T10:03:41;24.70;;;16.42;;
64674;SDS011;51090;51.512;11.332;2022-07-23T10:06:12;16.45;;;12.30;;
64674;SDS011;51090;51.512;11.332;2022-07-23T10:08:40;20.52;;;13.02;;
64674;SDS011;51090;51.512;11.332;2022-07-23T10:11:09;15.75;;;10.15;;
64674;SDS011;51090;51.512;11.332;2022-07-23T10:13:39;21.50;;;12.82;;
64674;SDS011;51090;51.512;11.332;2022-07-23T10:16:15;16.17;;;12.02;;
64674;SDS011;51090;51.512;11.332;2022-07-23T10:18:41;15.50;;;11.30;;
64674;SDS011;51090;51.512;11.332;2022-07-23T10:21:07;14.52;;;10.57;;
64674;SDS011;51090;51.512;11.332;2022-07-23T10:23:39;17.35;;;10.65;;
64674;SDS011;51090;51.512;11.332;2022-07-23T10:28:56;18.45;;;10.07;;
64674;SDS011;51090;51.512;11.332;2022-07-23T10:31:52;15.07;;;10.90;;
64674;SDS011;51090;51.512;11.332;2022-07-23T10:37:12;14.63;;;10.57;;
64674;SDS011;51090;51.512;11.332;2022-07-23T10:40:08;17.27;;;12.43;;
64674;SDS011;51090;51.512;11.332;2022-07-23T10:42:39;27.30;;;17.92;;
64674;SDS011;51090;51.512;11.332;2022-07-23T10:45:21;30.63;;;19.67;;
64674;SDS011;51090;51.512;11.332;2022-07-23T10:48:11;19.55;;;11.25;;
64674;SDS011;51090;51.512;11.332;2022-07-23T10:50:39;14.45;;;10.68;;
64674;SDS011;51090;51.512;11.332;2022-07-23T10:57:57;11.75;;;8.88;;
64674;SDS011;51090;51.512;11.332;2022-07-23T11:00:24;14.25;;;10.07;;
64674;SDS011;51090;51.512;11.332;2022-07-23T11:02:54;12.13;;;8.48;;
64674;SDS011;51090;51.512;11.332;2022-07-23T11:05:24;13.40;;;8.73;;
64674;SDS011;51090;51.512;11.332;2022-07-23T11:08:11;13.23;;;8.02;;
64674;SDS011;51090;51.512;11.332;2022-07-23T11:24:04;10.48;;;8.30;;
64674;SDS011;51090;51.512;11.332;2022-07-23T11:34:50;8.05;;;6.75;;
64674;SDS011;51090;51.512;11.332;2022-07-23T11:37:37;7.57;;;6.53;;
64674;SDS011;51090;51.512;11.332;2022-07-23T11:40:06;9.25;;;6.88;;
64674;SDS011;51090;51.512;11.332;2022-07-23T11:42:54;10.50;;;6.05;;
64674;SDS011;51090;51.512;11.332;2022-07-23T11:45:29;11.40;;;7.63;;
64674;SDS011;51090;51.512;11.332;2022-07-23T11:47:57;9.38;;;6.55;;
64674;SDS011;51090;51.512;11.332;2022-07-23T11:50:23;8.55;;;6.95;;
64674;SDS011;51090;51.512;11.332;2022-07-23T11:52:53;8.63;;;6.13;;
64674;SDS011;51090;51.512;11.332;2022-07-23T11:55:19;7.78;;;6.60;;
64674;SDS011;51090;51.512;11.332;2022-07-23T11:57:46;9.00;;;6.50;;
64674;SDS011;51090;51.512;11.332;2022-07-23T12:00:17;9.13;;;6.65;;
64674;SDS011;51090;51.512;11.332;2022-07-23T12:02:46;8.75;;;6.85;;
64674;SDS011;51090;51.512;11.332;2022-07-23T12:05:18;8.38;;;6.70;;
64674;SDS011;51090;51.512;11.332;2022-07-23T12:07:47;7.55;;;6.72;;
64674;SDS011;51090;51.512;11.332;2022-07-23T12:10:16;8.07;;;6.55;;
64674;SDS011;51090;51.512;11.332;2022-07-23T12:12:43;8.38;;;6.00;;
64674;SDS011;51090;51.512;11.332;2022-07-23T12:15:22;7.72;;;6.38;;
64674;SDS011;51090;51.512;11.332;2022-07-23T12:17:50;9.90;;;7.07;;
64674;SDS011;51090;51.512;11.332;2022-07-23T12:20:22;10.07;;;6.45;;
64674;SDS011;51090;51.512;11.332;2022-07-23T12:25:21;7.03;;;4.93;;
64674;SDS011;51090;51.512;11.332;2022-07-23T12:28:08;6.93;;;4.82;;
64674;SDS011;51090;51.512;11.332;2022-07-23T12:33:03;7.45;;;5.68;;
64674;SDS011;51090;51.512;11.332;2022-07-23T12:35:31;8.18;;;5.90;;
64674;SDS011;51090;51.512;11.332;2022-07-23T12:38:00;7.53;;;5.60;;
64674;SDS011;51090;51.512;11.332;2022-07-23T12:43:05;5.78;;;4.35;;
64674;SDS011;51090;51.512;11.332;2022-07-23T12:45:47;6.95;;;5.18;;
64674;SDS011;51090;51.512;11.332;2022-07-23T12:48:19;7.25;;;4.40;;
64674;SDS011;51090;51.512;11.332;2022-07-23T12:51:02;6.20;;;4.53;;
64674;SDS011;51090;51.512;11.332;2022-07-23T12:53:42;7.70;;;4.97;;
64674;SDS011;51090;51.512;11.332;2022-07-23T12:56:11;5.65;;;4.70;;
64674;SDS011;51090;51.512;11.332;2022-07-23T12:58:40;6.53;;;4.55;;
64674;SDS011;51090;51.512;11.332;2022-07-23T13:06:32;5.10;;;3.75;;
64674;SDS011;51090;51.512;11.332;2022-07-23T13:09:03;5.82;;;4.00;;
64674;SDS011;51090;51.512;11.332;2022-07-23T13:11:33;4.97;;;3.57;;
64674;SDS011;51090;51.512;11.332;2022-07-23T13:14:00;6.85;;;3.55;;
64674;SDS011;51090;51.512;11.332;2022-07-23T13:16:28;5.10;;;3.40;;
64674;SDS011;51090;51.512;11.332;2022-07-23T13:18:55;5.15;;;3.50;;
64674;SDS011;51090;51.512;11.332;2022-07-23T13:21:21;5.78;;;3.40;;
64674;SDS011;51090;51.512;11.332;2022-07-23T13:23:48;6.78;;;4.13;;
64674;SDS011;51090;51.512;11.332;2022-07-23T13:26:14;6.00;;;3.95;;
64674;SDS011;51090;51.512;11.332;2022-07-23T13:28:41;6.00;;;3.67;;
64674;SDS011;51090;51.512;11.332;2022-07-23T13:31:07;6.38;;;3.70;;
64674;SDS011;51090;51.512;11.332;2022-07-23T13:33:33;6.55;;;3.88;;
64674;SDS011;51090;51.512;11.332;2022-07-23T13:36:00;7.38;;;4.72;;
64674;SDS011;51090;51.512;11.332;2022-07-23T13:38:26;7.57;;;5.35;;
64674;SDS011;51090;51.512;11.332;2022-07-23T13:40:53;6.55;;;5.38;;
64674;SDS011;51090;51.512;11.332;2022-07-23T13:43:20;8.10;;;5.65;;
64674;SDS011;51090;51.512;11.332;2022-07-23T13:45:48;8.15;;;6.25;;
64674;SDS011;51090;51.512;11.332;2022-07-23T13:48:16;8.02;;;5.97;;
64674;SDS011;51090;51.512;11.332;2022-07-23T13:50:43;7.75;;;6.07;;
64674;SDS011;51090;51.512;11.332;2022-07-23T13:53:12;7.70;;;5.95;;
64674;SDS011;51090;51.512;11.332;2022-07-23T13:55:39;7.57;;;6.45;;
64674;SDS011;51090;51.512;11.332;2022-07-23T13:58:07;7.50;;;6.30;;
64674;SDS011;51090;51.512;11.332;2022-07-23T14:00:35;7.25;;;5.65;;
64674;SDS011;51090;51.512;11.332;2022-07-23T14:03:07;7.18;;;5.95;;
64674;SDS011;51090;51.512;11.332;2022-07-23T14:05:33;8.48;;;5.55;;
64674;SDS011;51090;51.512;11.332;2022-07-23T14:08:00;7.45;;;5.60;;
64674;SDS011;51090;51.512;11.332;2022-07-23T14:10:26;7.47;;;5.43;;
64674;SDS011;51090;51.512;11.332;2022-07-23T14:12:52;12.82;;;5.50;;
64674;SDS011;51090;51.512;11.332;2022-07-23T14:15:22;6.00;;;5.03;;
64674;SDS011;51090;51.512;11.332;2022-07-23T14:17:51;11.23;;;5.07;;
64674;SDS011;51090;51.512;11.332;2022-07-23T14:20:17;6.63;;;4.15;;
64674;SDS011;51090;51.512;11.332;2022-07-23T14:22:44;4.72;;;4.10;;
64674;SDS011;51090;51.512;11.332;2022-07-23T14:25:11;8.57;;;3.65;;
64674;SDS011;51090;51.512;11.332;2022-07-23T14:27:37;6.38;;;3.88;;
64674;SDS011;51090;51.512;11.332;2022-07-23T14:30:04;6.57;;;4.43;;
64674;SDS011;51090;51.512;11.332;2022-07-23T14:32:31;6.57;;;4.10;;
64674;SDS011;51090;51.512;11.332;2022-07-23T14:34:57;5.78;;;4.70;;
64674;SDS011;51090;51.512;11.332;2022-07-23T14:37:23;5.18;;;4.13;;
64674;SDS011;51090;51.512;11.332;2022-07-23T14:39:50;8.18;;;5.35;;
64674;SDS011;51090;51.512;11.332;2022-07-23T14:42:16;5.90;;;4.13;;
64674;SDS011;51090;51.512;11.332;2022-07-23T14:44:43;5.65;;;4.32;;
64674;SDS011;51090;51.512;11.332;2022-07-23T14:47:09;8.00;;;4.80;;
64674;SDS011;51090;51.512;11.332;2022-07-23T14:49:36;8.65;;;4.72;;
64674;SDS011;51090;51.512;11.332;2022-07-23T14:52:03;5.05;;;3.70;;
64674;SDS011;51090;51.512;11.332;2022-07-23T14:54:30;4.88;;;3.70;;
64674;SDS011;51090;51.512;11.332;2022-07-23T14:56:58;4.93;;;3.40;;
64674;SDS011;51090;51.512;11.332;2022-07-23T14:59:24;6.65;;;3.95;;
64674;SDS011;51090;51.512;11.332;2022-07-23T15:01:51;4.68;;;3.58;;
64674;SDS011;51090;51.512;11.332;2022-07-23T15:04:17;5.57;;;3.70;;
64674;SDS011;51090;51.512;11.332;2022-07-23T15:06:44;4.78;;;3.30;;
64674;SDS011;51090;51.512;11.332;2022-07-23T15:09:10;5.95;;;3.40;;
64674;SDS011;51090;51.512;11.332;2022-07-23T15:11:36;5.63;;;3.30;;
64674;SDS011;51090;51.512;11.332;2022-07-23T15:14:05;6.75;;;3.40;;
64674;SDS011;51090;51.512;11.332;2022-07-23T15:16:32;8.02;;;3.38;;